createdAt,value
2019-04-21T00:01:46.557Z,31.20
2019-04-21T00:04:27.258Z,31.20
2019-04-21T00:07:04.008Z,31.30
2019-04-21T00:09:42.316Z,31.30
2019-04-21T00:12:07.585Z,31.40
2019-04-21T00:14:30.270Z,31.50
2019-04-21T00:16:59.688Z,31.50
2019-04-21T00:19:28.379Z,31.50
2019-04-21T00:22:08.567Z,31.60
2019-04-21T00:24:46.041Z,31.70
2019-04-21T00:27:15.977Z,31.80
2019-04-21T00:29:51.885Z,31.80
2019-04-21T00:32:19.572Z,31.90
2019-04-21T00:34:36.336Z,31.90
2019-04-21T00:37:17.984Z,32.00
2019-04-21T00:40:03.777Z,32.00
2019-04-21T00:42:30.253Z,32.10
2019-04-21T00:45:00.819Z,32.20
2019-04-21T00:47:34.095Z,32.20
2019-04-21T00:50:08.039Z,32.40
2019-04-21T00:52:53.907Z,32.40
2019-04-21T00:55:20.338Z,32.50
2019-04-21T00:57:51.947Z,32.60
2019-04-21T01:00:18.654Z,32.60
2019-04-21T01:02:51.115Z,32.70
2019-04-21T01:05:21.384Z,32.80
2019-04-21T01:07:45.465Z,32.80
2019-04-21T01:10:16.194Z,32.90
2019-04-21T01:12:54.715Z,33.00
2019-04-21T01:15:30.698Z,33.00
2019-04-21T01:17:57.651Z,33.10
2019-04-21T01:20:16.704Z,33.10
2019-04-21T01:22:41.044Z,33.20
2019-04-21T01:25:20.249Z,33.30
2019-04-21T01:27:59.360Z,33.40
2019-04-21T01:30:34.642Z,33.50
2019-04-21T01:33:07.760Z,33.50
2019-04-21T01:35:39.719Z,33.60
2019-04-21T01:38:14.257Z,33.70
2019-04-21T01:40:59.103Z,33.80
2019-04-21T01:43:13.660Z,33.90
2019-04-21T01:45:45.853Z,34.00
2019-04-21T01:48:13.062Z,34.10
2019-04-21T01:50:47.137Z,34.10
2019-04-21T01:53:24.878Z,34.30
2019-04-21T01:55:54.403Z,34.30
2019-04-21T01:58:21.060Z,34.30
2019-04-21T02:00:59.013Z,34.30
2019-04-21T02:03:48.941Z,34.40
2019-04-21T02:06:12.534Z,34.40
2019-04-21T02:08:31.363Z,34.50
2019-04-21T02:11:12.558Z,34.50
2019-04-21T02:13:48.618Z,34.50
2019-04-21T02:16:11.306Z,34.60
2019-04-21T02:18:46.467Z,34.60
2019-04-21T02:21:04.287Z,34.60
2019-04-21T02:23:54.052Z,34.70
2019-04-21T02:26:22.640Z,34.70
2019-04-21T02:28:56.051Z,34.80
2019-04-21T02:39:15.906Z,35.10
2019-04-21T02:41:44.141Z,35.30
2019-04-21T02:44:20.078Z,35.40
2019-04-21T02:49:23.026Z,35.50
2019-04-21T02:51:58.570Z,35.70
2019-04-21T02:54:42.028Z,35.70
2019-04-21T02:56:53.393Z,35.80
2019-04-21T02:59:28.974Z,35.80
2019-04-21T03:01:56.510Z,35.90
2019-04-21T03:07:09.663Z,35.90
2019-04-21T03:09:46.214Z,36.00
2019-04-21T03:14:53.338Z,36.10
2019-04-21T03:17:15.450Z,36.10
2019-04-21T03:19:51.366Z,36.20
2019-04-21T03:22:53.896Z,36.20
2019-04-21T03:25:20.391Z,36.40
2019-04-21T03:29:57.114Z,36.50
2019-04-21T03:32:51.291Z,36.60
2019-04-21T03:35:32.767Z,36.70
2019-04-21T03:37:33.442Z,36.80
2019-04-21T03:42:36.793Z,37.00
2019-04-21T03:45:25.176Z,37.20
2019-04-21T03:52:42.612Z,37.50
2019-04-21T03:55:34.030Z,37.60
2019-04-21T03:57:57.725Z,37.60
2019-04-21T04:00:22.588Z,37.50
2019-04-21T04:02:55.648Z,37.50
2019-04-21T04:05:31.307Z,37.50
2019-04-21T04:07:59.234Z,37.60
2019-04-21T04:10:22.842Z,37.70
2019-04-21T04:15:36.151Z,37.80
2019-04-21T04:17:54.515Z,37.90
2019-04-21T04:20:28.107Z,38.00
2019-04-21T04:23:02.944Z,38.10
2019-04-21T04:25:35.241Z,38.20
2019-04-21T04:28:10.236Z,38.20
2019-04-21T04:30:37.867Z,38.30
2019-04-21T04:33:09.922Z,38.30
2019-04-21T04:35:56.081Z,38.40
2019-04-21T04:38:33.783Z,38.60
2019-04-21T04:40:57.513Z,38.70
2019-04-21T04:43:25.633Z,38.80
2019-04-21T04:48:29.063Z,38.80
2019-04-21T04:53:31.023Z,38.60
2019-04-21T04:56:22.988Z,38.70
2019-04-21T04:58:44.322Z,38.90
2019-04-21T05:01:21.515Z,39.10
2019-04-21T05:03:43.850Z,39.10
2019-04-21T05:06:32.643Z,39.20
2019-04-21T05:08:55.929Z,39.10
2019-04-21T05:11:23.557Z,39.10
2019-04-21T05:13:52.635Z,39.10
2019-04-21T05:16:24.367Z,39.20
2019-04-21T05:19:10.543Z,39.20
2019-04-21T05:21:30.184Z,39.30
2019-04-21T05:23:45.718Z,39.40
2019-04-21T05:26:13.559Z,39.50
2019-04-21T05:28:41.944Z,39.60
2019-04-21T05:31:27.106Z,39.70
2019-04-21T05:33:57.684Z,39.80
2019-04-21T05:36:31.252Z,39.80
2019-04-21T05:38:59.621Z,39.80
2019-04-21T05:41:21.877Z,39.80
2019-04-21T05:44:03.811Z,39.80
2019-04-21T05:46:42.514Z,39.90
2019-04-21T05:49:10.755Z,39.90
2019-04-21T05:51:41.035Z,39.90
2019-04-21T05:54:22.956Z,39.90
2019-04-21T05:56:46.090Z,39.80
2019-04-21T05:59:12.195Z,39.80
2019-04-21T06:02:05.869Z,39.90
2019-04-21T06:04:40.383Z,39.90
2019-04-21T06:07:00.126Z,40.00
2019-04-21T06:09:27.056Z,40.10
2019-04-21T06:11:59.792Z,40.20
2019-04-21T06:14:31.187Z,40.30
2019-04-21T06:17:04.566Z,40.30
2019-04-21T06:19:36.769Z,40.30
2019-04-21T06:22:06.462Z,40.30
2019-04-21T06:24:52.195Z,40.40
2019-04-21T06:27:08.178Z,40.50
2019-04-21T06:29:46.630Z,40.50
2019-04-21T06:32:30.266Z,40.50
2019-04-21T06:35:11.177Z,40.50
2019-04-21T06:37:40.376Z,40.50
2019-04-21T06:40:03.299Z,40.60
2019-04-21T06:42:18.534Z,40.70
2019-04-21T06:45:01.490Z,40.80
2019-04-21T06:47:29.969Z,40.90
2019-04-21T06:49:53.717Z,40.90
2019-04-21T06:55:12.091Z,41.00
2019-04-21T06:57:37.208Z,41.00
2019-04-21T06:59:59.854Z,40.90
2019-04-21T07:02:43.704Z,40.90
2019-04-21T07:05:15.502Z,40.80
2019-04-21T07:07:43.324Z,40.70
2019-04-21T07:10:26.001Z,40.70
2019-04-21T07:12:40.393Z,40.70
2019-04-21T07:15:22.157Z,40.60
2019-04-21T07:17:45.751Z,40.70
2019-04-21T07:20:17.269Z,40.70
2019-04-21T07:22:48.077Z,40.70
2019-04-21T07:25:24.821Z,40.70
2019-04-21T07:27:56.686Z,40.60
2019-04-21T07:30:34.120Z,40.50
2019-04-21T07:33:08.973Z,40.60
2019-04-21T07:35:24.913Z,40.60
2019-04-21T07:38:01.296Z,40.50
2019-04-21T07:40:28.625Z,40.70
2019-04-21T07:43:01.413Z,40.80
2019-04-21T07:45:33.427Z,40.80
2019-04-21T07:48:09.323Z,40.90
2019-04-21T07:50:38.237Z,40.90
2019-04-21T07:53:19.553Z,41.00
2019-04-21T07:58:14.575Z,41.10
2019-04-21T08:00:51.459Z,41.20
2019-04-21T08:03:19.308Z,41.10
2019-04-21T08:05:52.684Z,41.00
2019-04-21T08:08:20.893Z,40.90
2019-04-21T08:10:52.315Z,40.80
2019-04-21T08:13:38.226Z,40.80
2019-04-21T08:16:03.107Z,40.90
2019-04-21T08:18:33.480Z,41.00
2019-04-21T08:21:00.785Z,41.00
2019-04-21T08:23:31.792Z,41.00
2019-04-21T08:26:07.987Z,41.00
2019-04-21T08:28:42.637Z,41.10
2019-04-21T08:31:08.198Z,41.20
2019-04-21T08:36:20.777Z,41.30
2019-04-21T08:41:12.470Z,41.30
2019-04-21T08:43:46.892Z,41.30
2019-04-21T08:46:20.156Z,41.30
2019-04-21T08:48:53.018Z,41.30
2019-04-21T08:51:27.739Z,41.30
2019-04-21T08:53:53.644Z,41.20
2019-04-21T08:56:27.397Z,41.20
2019-04-21T08:59:07.497Z,41.20
2019-04-21T09:04:10.665Z,41.20
2019-04-21T09:09:10.958Z,41.10
2019-04-21T09:11:36.279Z,41.10
2019-04-21T09:14:13.862Z,41.10
2019-04-21T09:16:35.201Z,41.00
2019-04-21T09:19:11.761Z,41.00
2019-04-21T09:24:19.004Z,41.00
2019-04-21T09:26:48.173Z,41.00
2019-04-21T09:29:10.849Z,41.00
2019-04-21T09:31:39.235Z,41.00
2019-04-21T09:34:08.401Z,40.90
2019-04-21T09:36:43.095Z,40.90
2019-04-21T09:39:15.150Z,40.90
2019-04-21T09:41:44.781Z,40.90
2019-04-21T09:44:22.054Z,40.80
2019-04-21T09:46:50.729Z,40.80
2019-04-21T09:49:22.478Z,40.80
2019-04-21T09:51:50.650Z,40.90
2019-04-21T09:54:26.521Z,40.90
2019-04-21T09:56:58.571Z,41.00
2019-04-21T09:59:30.090Z,41.00
2019-04-21T10:02:06.372Z,41.00
2019-04-21T10:04:28.885Z,41.10
2019-04-21T10:06:59.184Z,41.10
2019-04-21T10:09:30.972Z,41.10
2019-04-21T10:12:01.298Z,41.10
2019-04-21T10:14:32.917Z,41.00
2019-04-21T10:17:04.838Z,40.80
2019-04-21T10:19:36.170Z,40.70
2019-04-21T10:22:06.661Z,40.60
2019-04-21T10:24:36.809Z,40.50
2019-04-21T10:27:08.619Z,40.40
2019-04-21T10:29:42.699Z,40.20
2019-04-21T10:32:11.336Z,40.20
2019-04-21T10:34:41.729Z,40.00
2019-04-21T10:37:13.237Z,39.90
2019-04-21T10:39:43.403Z,39.70
2019-04-21T10:42:15.384Z,39.60
2019-04-21T10:44:47.109Z,39.40
2019-04-21T10:47:18.609Z,39.30
2019-04-21T10:49:48.882Z,39.20
2019-04-21T10:52:20.477Z,39.10
2019-04-21T10:55:11.252Z,39.00
2019-04-21T10:57:24.208Z,38.90
2019-04-21T10:59:56.450Z,38.80
2019-04-21T11:02:30.772Z,38.70
2019-04-21T11:05:01.113Z,38.60
2019-04-21T11:07:39.034Z,38.40
2019-04-21T11:10:04.695Z,38.30
2019-04-21T11:12:36.569Z,38.20
2019-04-21T11:15:07.398Z,38.10
2019-04-21T11:17:40.186Z,38.00
2019-04-21T11:20:10.756Z,37.90
2019-04-21T11:22:41.659Z,37.80
2019-04-21T11:25:12.851Z,37.70
2019-04-21T11:27:43.254Z,37.60
2019-04-21T11:30:13.841Z,37.50
2019-04-21T11:32:46.303Z,37.40
2019-04-21T11:35:17.059Z,37.30
2019-04-21T11:40:21.326Z,37.10
2019-04-21T11:42:51.454Z,37.00
2019-04-21T11:45:24.476Z,37.00
2019-04-21T11:47:56.441Z,36.90
2019-04-21T11:50:26.663Z,36.80
2019-04-21T11:52:56.976Z,36.70
2019-04-21T11:55:33.638Z,36.60
2019-04-21T11:58:00.223Z,36.50
2019-04-21T12:00:31.549Z,36.40
2019-04-21T12:03:01.699Z,36.40
2019-04-21T12:05:32.977Z,36.30
2019-04-21T12:08:03.986Z,36.20
2019-04-21T12:10:35.492Z,36.10
2019-04-21T12:13:07.382Z,36.00
2019-04-21T12:15:38.833Z,35.90
2019-04-21T12:18:10.028Z,35.80
2019-04-21T12:20:40.960Z,35.70
2019-04-21T12:23:12.205Z,35.70
2019-04-21T12:25:45.201Z,35.60
2019-04-21T12:28:15.968Z,35.60
2019-04-21T12:30:49.647Z,35.50
2019-04-21T12:33:22.343Z,35.50
2019-04-21T12:35:53.666Z,35.40
2019-04-21T12:38:36.355Z,35.40
2019-04-21T12:40:56.845Z,35.30
2019-04-21T12:43:28.483Z,35.30
2019-04-21T12:46:00.023Z,35.20
2019-04-21T12:48:31.683Z,35.20
2019-04-21T12:51:01.905Z,35.10
2019-04-21T12:53:33.850Z,35.00
2019-04-21T12:56:05.304Z,35.00
2019-04-21T12:58:35.845Z,35.00
2019-04-21T13:01:07.140Z,34.90
2019-04-21T13:03:37.700Z,34.90
2019-04-21T13:06:09.714Z,34.90
2019-04-21T13:08:50.948Z,34.90
2019-04-21T13:11:11.902Z,34.90
2019-04-21T13:13:43.893Z,34.80
2019-04-21T13:16:14.101Z,34.80
2019-04-21T13:18:44.943Z,34.80
2019-04-21T13:21:16.120Z,34.80
2019-04-21T13:23:47.234Z,34.70
2019-04-21T13:26:27.599Z,34.70
2019-04-21T13:28:50.007Z,34.70
2019-04-21T13:31:20.475Z,34.60
2019-04-21T13:33:52.277Z,34.60
2019-04-21T13:36:23.437Z,34.50
2019-04-21T13:39:31.498Z,34.50
2019-04-21T13:41:41.922Z,34.40
2019-04-21T13:44:01.234Z,34.40
2019-04-21T13:46:31.525Z,34.40
2019-04-21T13:49:03.195Z,34.30
2019-04-21T13:51:34.109Z,34.30
2019-04-21T13:54:04.591Z,34.30
2019-04-21T13:56:34.717Z,34.20
2019-04-21T13:59:06.496Z,34.20
2019-04-21T14:01:37.579Z,34.20
2019-04-21T14:04:09.372Z,34.20
2019-04-21T14:06:40.565Z,34.10
2019-04-21T14:09:13.699Z,34.20
2019-04-21T14:11:45.258Z,34.10
2019-04-21T14:14:16.571Z,34.10
2019-04-21T14:16:47.894Z,34.10
2019-04-21T14:19:19.298Z,34.10
2019-04-21T14:21:51.163Z,34.10
2019-04-21T14:24:22.542Z,34.10
2019-04-21T14:26:54.154Z,34.10
2019-04-21T14:29:25.629Z,34.10
2019-04-21T14:31:56.168Z,34.10
2019-04-21T14:34:26.403Z,34.00
2019-04-21T14:36:56.881Z,34.00
2019-04-21T14:39:28.251Z,33.90
2019-04-21T14:41:58.483Z,33.90
2019-04-21T14:44:29.222Z,33.80
2019-04-21T14:47:01.425Z,33.80
2019-04-21T14:49:33.127Z,33.70
2019-04-21T14:52:05.073Z,33.70
2019-04-21T14:54:36.645Z,33.60
2019-04-21T14:57:07.224Z,33.60
2019-04-21T14:59:37.422Z,33.70
2019-04-21T15:02:08.087Z,33.70
2019-04-21T15:04:39.773Z,33.70
2019-04-21T15:07:09.996Z,33.70
2019-04-21T15:09:42.547Z,33.70
2019-04-21T15:12:11.949Z,33.70
2019-04-21T15:14:42.313Z,33.70
2019-04-21T15:17:14.156Z,33.70
2019-04-21T15:19:54.018Z,33.70
2019-04-21T15:22:16.471Z,33.70
2019-04-21T15:24:48.024Z,33.70
2019-04-21T15:27:18.978Z,33.70
2019-04-21T15:29:50.956Z,33.70
2019-04-21T15:32:21.951Z,33.70
2019-04-21T15:34:52.454Z,33.70
2019-04-21T15:37:24.021Z,33.80
2019-04-21T15:39:54.416Z,33.70
2019-04-21T15:42:24.788Z,33.80
2019-04-21T15:44:56.695Z,33.70
2019-04-21T15:47:26.465Z,33.70
2019-04-21T15:50:04.683Z,33.80
2019-04-21T15:52:29.970Z,33.70
2019-04-21T15:55:03.135Z,33.70
2019-04-21T15:57:35.537Z,33.80
2019-04-21T16:00:08.800Z,33.80
2019-04-21T16:02:40.536Z,33.80
2019-04-21T16:05:12.856Z,33.80
2019-04-21T16:07:44.333Z,33.80
2019-04-21T16:10:29.938Z,33.80
2019-04-21T16:12:47.559Z,33.80
2019-04-21T16:15:18.827Z,33.80
2019-04-21T16:17:51.061Z,33.80
2019-04-21T16:20:21.933Z,33.80
2019-04-21T16:22:52.832Z,33.80
2019-04-21T16:25:23.549Z,33.70
2019-04-21T16:27:55.131Z,33.70
2019-04-21T16:30:25.887Z,33.80
2019-04-21T16:32:56.425Z,33.70
2019-04-21T16:35:26.867Z,33.60
2019-04-21T16:37:59.007Z,33.70
2019-04-21T16:40:41.358Z,33.60
2019-04-21T16:43:00.673Z,33.60
2019-04-21T16:45:32.730Z,33.60
2019-04-21T16:48:03.414Z,33.60
2019-04-21T16:50:34.009Z,33.60
2019-04-21T16:53:06.084Z,33.50
2019-04-21T16:55:39.213Z,33.40
2019-04-21T16:58:16.842Z,33.50
2019-04-21T17:00:53.974Z,33.40
2019-04-21T17:03:16.578Z,33.40
2019-04-21T17:05:48.060Z,33.40
2019-04-21T17:08:19.769Z,33.30
2019-04-21T17:11:03.993Z,33.30
2019-04-21T17:13:22.301Z,33.30
2019-04-21T17:16:11.020Z,33.30
2019-04-21T17:18:39.504Z,33.20
2019-04-21T17:21:00.946Z,33.20
2019-04-21T17:23:29.332Z,33.10
2019-04-21T17:25:59.498Z,33.10
2019-04-21T17:28:29.883Z,33.10
2019-04-21T17:31:00.334Z,33.10
2019-04-21T17:33:31.955Z,33.10
2019-04-21T17:36:03.013Z,33.10
2019-04-21T17:38:34.222Z,33.00
2019-04-21T17:41:17.793Z,32.90
2019-04-21T17:43:37.440Z,32.90
2019-04-21T17:46:09.038Z,32.90
2019-04-21T17:48:39.114Z,32.80
2019-04-21T17:51:11.809Z,32.80
2019-04-21T17:53:48.194Z,32.70
2019-04-21T17:56:46.317Z,32.70
2019-04-21T17:59:04.133Z,32.60
2019-04-21T18:01:45.163Z,32.60
2019-04-21T18:04:24.088Z,32.50
2019-04-21T18:06:39.757Z,32.50
2019-04-21T18:09:22.316Z,32.50
2019-04-21T18:11:46.535Z,32.50
2019-04-21T18:14:01.656Z,32.40
2019-04-21T18:16:39.463Z,32.30
2019-04-21T18:19:04.697Z,32.20
2019-04-21T18:21:41.340Z,32.20
2019-04-21T18:24:15.588Z,32.20
2019-04-21T18:26:50.699Z,32.10
2019-04-21T18:29:13.712Z,32.20
2019-04-21T18:31:48.677Z,32.20
2019-04-21T18:34:19.137Z,32.10
2019-04-21T18:36:53.503Z,32.10
2019-04-21T18:39:40.639Z,32.10
2019-04-21T18:42:09.285Z,32.10
2019-04-21T18:45:06.524Z,32.10
2019-04-21T18:47:19.891Z,32.10
2019-04-21T18:49:35.363Z,32.10
2019-04-21T18:52:20.270Z,32.00
2019-04-21T18:54:54.751Z,32.00
2019-04-21T18:57:22.820Z,32.00
2019-04-21T18:59:47.102Z,32.00
2019-04-21T19:02:18.992Z,32.00
2019-04-21T19:04:48.340Z,32.00
2019-04-21T19:07:37.891Z,32.00
2019-04-21T19:10:21.999Z,32.00
2019-04-21T19:13:05.964Z,31.90
2019-04-21T19:15:10.845Z,31.90
2019-04-21T19:18:28.310Z,31.90
2019-04-21T19:20:19.445Z,31.80
2019-04-21T19:22:44.420Z,31.70
2019-04-21T19:25:26.976Z,31.60
2019-04-21T19:27:53.250Z,31.60
2019-04-21T19:30:28.575Z,31.60
2019-04-21T19:32:51.034Z,31.60
2019-04-21T19:35:10.723Z,31.50
2019-04-21T19:37:49.786Z,31.50
2019-04-21T19:40:31.616Z,31.50
2019-04-21T19:42:57.037Z,31.50
2019-04-21T19:45:33.250Z,31.40
2019-04-21T19:48:08.091Z,31.40
2019-04-21T19:50:41.168Z,31.40
2019-04-21T19:53:00.897Z,31.40
2019-04-21T19:55:22.739Z,31.40
2019-04-21T19:57:53.085Z,31.40
2019-04-21T20:00:24.418Z,31.30
2019-04-21T20:02:54.802Z,31.30
2019-04-21T20:05:35.206Z,31.30
2019-04-21T20:08:06.623Z,31.30
2019-04-21T20:10:48.421Z,31.20
2019-04-21T20:13:32.234Z,31.20
2019-04-21T20:15:50.956Z,31.20
2019-04-21T20:18:16.527Z,31.20
2019-04-21T20:20:35.286Z,31.20
2019-04-21T20:23:13.157Z,31.20
2019-04-21T20:25:43.708Z,31.10
2019-04-21T20:28:17.373Z,31.10
2019-04-21T20:31:03.818Z,31.20
2019-04-21T20:36:02.087Z,31.20
2019-04-21T20:38:30.126Z,31.20
2019-04-21T20:40:53.677Z,31.20
2019-04-21T20:43:38.097Z,31.20
2019-04-21T20:46:07.854Z,31.20
2019-04-21T20:48:35.581Z,31.20
2019-04-21T20:51:13.093Z,31.20
2019-04-21T20:53:43.894Z,31.20
2019-04-21T20:56:08.757Z,31.10
2019-04-21T20:58:48.257Z,31.20
2019-04-21T21:03:50.326Z,31.00
2019-04-21T21:06:18.666Z,31.10
2019-04-21T21:08:53.528Z,31.00
2019-04-21T21:11:23.111Z,31.10
2019-04-21T21:13:59.179Z,31.10
2019-04-21T21:16:29.168Z,31.10
2019-04-21T21:19:10.591Z,31.10
2019-04-21T21:21:30.049Z,31.10
2019-04-21T21:24:06.784Z,31.10
2019-04-21T21:26:38.152Z,31.10
2019-04-21T21:29:00.287Z,31.00
2019-04-21T21:31:37.092Z,31.00
2019-04-21T21:34:16.304Z,31.00
2019-04-21T21:36:44.995Z,31.00
2019-04-21T21:39:12.704Z,31.00
2019-04-21T21:41:32.368Z,31.00
2019-04-21T21:44:05.794Z,31.00
2019-04-21T21:46:45.713Z,31.00
2019-04-21T21:49:19.046Z,31.00
2019-04-21T21:51:45.077Z,31.00
2019-04-21T21:54:05.323Z,31.00
2019-04-21T21:56:36.534Z,30.90
2019-04-21T21:59:13.103Z,30.80
2019-04-21T22:01:44.090Z,30.70
2019-04-21T22:04:17.016Z,30.70
2019-04-21T22:06:50.406Z,30.70
2019-04-21T22:09:14.560Z,30.70
2019-04-21T22:11:48.228Z,30.70
2019-04-21T22:14:25.904Z,30.80
2019-04-21T22:17:07.584Z,30.80
2019-04-21T22:19:42.837Z,30.80
2019-04-21T22:22:09.272Z,30.80
2019-04-21T22:24:41.545Z,30.80
2019-04-21T22:26:57.015Z,30.90
2019-04-21T22:29:34.545Z,30.90
2019-04-21T22:32:01.433Z,30.90
2019-04-21T22:34:36.603Z,30.80
2019-04-21T22:37:24.460Z,30.70
2019-04-21T22:39:48.603Z,30.70
2019-04-21T22:42:12.144Z,30.60
2019-04-21T22:44:38.508Z,30.60
2019-04-21T22:47:16.884Z,30.60
2019-04-21T22:49:40.968Z,30.60
2019-04-21T22:52:16.704Z,30.70
2019-04-21T22:54:44.894Z,30.60
2019-04-21T22:57:18.358Z,30.70
2019-04-21T22:59:55.208Z,30.70
2019-04-21T23:02:24.686Z,30.70
2019-04-21T23:04:55.859Z,30.70
2019-04-21T23:07:24.360Z,30.70
2019-04-21T23:09:53.527Z,30.80
2019-04-21T23:12:28.213Z,30.70
2019-04-21T23:15:03.848Z,30.70
2019-04-21T23:17:48.236Z,30.70
2019-04-21T23:20:19.941Z,30.70
2019-04-21T23:22:58.352Z,30.70
2019-04-21T23:25:18.157Z,30.70
2019-04-21T23:27:53.872Z,30.70
2019-04-21T23:30:33.805Z,30.70
2019-04-21T23:32:47.891Z,30.80
2019-04-21T23:35:18.785Z,30.80
2019-04-21T23:37:52.087Z,30.80
2019-04-21T23:40:18.144Z,30.90
2019-04-21T23:42:47.185Z,30.90
2019-04-21T23:45:19.549Z,30.90
2019-04-21T23:48:01.459Z,31.00
2019-04-21T23:50:33.241Z,31.00
2019-04-21T23:52:53.391Z,31.10
2019-04-21T23:55:23.620Z,31.00
2019-04-21T23:58:02.332Z,31.00
